createdAt,value
2023-09-23T00:00:55.919Z,13.41
2023-09-23T00:01:56.002Z,13.38
2023-09-23T00:02:55.982Z,13.36
2023-09-23T00:03:55.983Z,13.35
2023-09-23T00:04:55.940Z,13.38
2023-09-23T00:05:55.846Z,13.36
2023-09-23T00:06:55.856Z,13.39
2023-09-23T00:07:55.869Z,13.41
2023-09-23T00:08:55.843Z,13.41
2023-09-23T00:09:55.831Z,13.39
2023-09-23T00:10:55.855Z,13.41
2023-09-23T00:11:55.795Z,13.41
2023-09-23T00:12:55.746Z,13.41
2023-09-23T00:13:55.821Z,13.43
2023-09-23T00:14:55.739Z,13.41
2023-09-23T00:15:55.757Z,13.39
2023-09-23T00:16:55.767Z,13.39
2023-09-23T00:17:55.798Z,13.39
2023-09-23T00:18:55.687Z,13.39
2023-09-23T00:19:56.683Z,13.39
2023-09-23T00:20:55.654Z,13.39
2023-09-23T00:21:55.649Z,13.39
2023-09-23T00:22:55.661Z,13.41
2023-09-23T00:23:55.641Z,13.41
2023-09-23T00:24:55.619Z,13.39
2023-09-23T00:25:55.624Z,13.32
2023-09-23T00:26:55.574Z,13.32
2023-09-23T00:27:55.921Z,13.32
2023-09-23T00:28:55.587Z,13.31
2023-09-23T00:29:55.579Z,13.35
2023-09-23T00:30:55.549Z,13.32
2023-09-23T00:31:55.634Z,13.28
2023-09-23T00:32:55.637Z,13.21
2023-09-23T00:33:55.518Z,13.22
2023-09-23T00:34:55.557Z,13.25
2023-09-23T00:35:55.492Z,13.24
2023-09-23T00:36:55.484Z,13.22
2023-09-23T00:37:55.469Z,13.24
2023-09-23T00:38:55.428Z,13.27
2023-09-23T00:39:55.427Z,13.28
2023-09-23T00:40:55.461Z,13.29
2023-09-23T00:41:55.383Z,13.29
2023-09-23T00:42:55.398Z,13.28
2023-09-23T00:43:55.418Z,13.29
2023-09-23T00:44:55.389Z,13.32
2023-09-23T00:45:55.358Z,13.36
2023-09-23T00:46:55.355Z,13.39
2023-09-23T00:47:55.358Z,13.41
2023-09-23T00:48:55.329Z,13.43
2023-09-23T00:49:55.337Z,13.43
2023-09-23T00:50:55.274Z,13.46
2023-09-23T00:51:55.265Z,13.43
2023-09-23T00:52:55.289Z,13.43
2023-09-23T00:53:55.237Z,13.39
2023-09-23T00:54:55.239Z,13.38
2023-09-23T00:55:55.292Z,13.35
2023-09-23T00:56:55.194Z,13.35
2023-09-23T00:57:55.184Z,13.36
2023-09-23T00:58:55.208Z,13.38
2023-09-23T00:59:55.200Z,13.32
2023-09-23T01:00:55.147Z,13.36
2023-09-23T01:01:55.163Z,13.32
2023-09-23T01:02:55.207Z,13.32
2023-09-23T01:03:55.156Z,13.29
2023-09-23T01:04:55.148Z,13.28
2023-09-23T01:05:55.085Z,13.25
2023-09-23T01:06:55.058Z,13.22
2023-09-23T01:07:55.088Z,13.21
2023-09-23T01:08:55.052Z,13.17
2023-09-23T01:09:55.055Z,13.17
2023-09-23T01:10:55.073Z,13.16
2023-09-23T01:11:55.015Z,13.12
2023-09-23T01:12:55.004Z,13.10
2023-09-23T01:13:54.998Z,13.07
2023-09-23T01:14:54.989Z,13.04
2023-09-23T01:15:55.022Z,12.99
2023-09-23T01:16:55.022Z,12.96
2023-09-23T01:17:55.024Z,12.95
2023-09-23T01:18:54.992Z,12.94
2023-09-23T01:19:54.933Z,12.89
2023-09-23T01:20:54.908Z,12.88
2023-09-23T01:21:54.883Z,12.89
2023-09-23T01:22:54.915Z,12.89
2023-09-23T01:23:54.873Z,12.87
2023-09-23T01:24:54.846Z,12.84
2023-09-23T01:25:54.878Z,12.84
2023-09-23T01:26:54.820Z,12.81
2023-09-23T01:27:54.808Z,12.80
2023-09-23T01:28:54.854Z,12.80
2023-09-23T01:29:54.844Z,12.77
2023-09-23T01:30:54.893Z,12.77
2023-09-23T01:31:54.924Z,12.76
2023-09-23T01:32:54.808Z,12.73
2023-09-23T01:33:54.806Z,12.73
2023-09-23T01:34:54.760Z,12.71
2023-09-23T01:35:54.693Z,12.73
2023-09-23T01:36:54.712Z,12.71
2023-09-23T01:37:55.327Z,12.69
2023-09-23T01:38:54.678Z,12.69
2023-09-23T01:39:54.659Z,12.67
2023-09-23T01:40:54.696Z,12.70
2023-09-23T01:41:54.622Z,12.70
2023-09-23T01:42:54.628Z,12.71
2023-09-23T01:43:54.654Z,12.73
2023-09-23T01:44:54.598Z,12.73
2023-09-23T01:45:54.567Z,12.73
2023-09-23T01:46:54.647Z,12.71
2023-09-23T01:47:54.632Z,12.70
2023-09-23T01:48:54.534Z,12.70
2023-09-23T01:49:54.632Z,12.71
2023-09-23T01:50:54.548Z,12.71
2023-09-23T01:51:54.515Z,12.73
2023-09-23T01:52:54.526Z,12.70
2023-09-23T01:53:54.506Z,12.69
2023-09-23T01:54:54.453Z,12.69
2023-09-23T01:55:54.504Z,12.69
2023-09-23T01:56:54.423Z,12.67
2023-09-23T01:57:54.424Z,12.67
2023-09-23T01:58:54.454Z,12.66
2023-09-23T01:59:54.424Z,12.66
2023-09-23T02:00:54.397Z,12.62
2023-09-23T02:01:54.456Z,12.62
2023-09-23T02:02:54.488Z,12.62
2023-09-23T02:03:54.412Z,12.61
2023-09-23T02:04:54.364Z,12.61
2023-09-23T02:05:54.363Z,12.61
2023-09-23T02:06:54.302Z,12.58
2023-09-23T02:07:54.311Z,12.58
2023-09-23T02:08:54.296Z,12.58
2023-09-23T02:09:54.264Z,12.56
2023-09-23T02:10:54.312Z,12.55
2023-09-23T02:11:54.264Z,12.54
2023-09-23T02:12:54.225Z,12.54
2023-09-23T02:13:54.255Z,12.51
2023-09-23T02:14:54.208Z,12.52
2023-09-23T02:15:54.235Z,12.54
2023-09-23T02:16:54.319Z,12.52
2023-09-23T02:17:54.556Z,12.51
2023-09-23T02:18:54.184Z,12.49
2023-09-23T02:19:54.190Z,12.49
2023-09-23T02:20:54.142Z,12.49
2023-09-23T02:21:54.133Z,12.49
2023-09-23T02:22:54.398Z,12.46
2023-09-23T02:23:54.086Z,12.49
2023-09-23T02:24:54.095Z,12.48
2023-09-23T02:25:54.134Z,12.49
2023-09-23T02:26:54.105Z,12.46
2023-09-23T02:27:54.115Z,12.44
2023-09-23T02:28:54.095Z,12.44
2023-09-23T02:29:54.025Z,12.44
2023-09-23T02:30:54.073Z,12.44
2023-09-23T02:31:54.022Z,12.41
2023-09-23T02:32:54.245Z,12.43
2023-09-23T02:33:53.987Z,12.46
2023-09-23T02:34:53.984Z,12.48
2023-09-23T02:35:53.934Z,12.49
2023-09-23T02:36:53.948Z,12.51
2023-09-23T02:37:53.968Z,12.52
2023-09-23T02:38:53.902Z,12.52
2023-09-23T02:39:53.881Z,12.49
2023-09-23T02:40:53.890Z,12.51
2023-09-23T02:41:53.866Z,12.49
2023-09-23T02:42:53.850Z,12.48
2023-09-23T02:43:53.839Z,12.44
2023-09-23T02:44:53.837Z,12.41
2023-09-23T02:45:53.811Z,12.41
2023-09-23T02:46:53.888Z,12.40
2023-09-23T02:47:53.841Z,12.38
2023-09-23T02:48:53.781Z,12.38
2023-09-23T02:49:53.801Z,12.34
2023-09-23T02:50:53.780Z,12.34
2023-09-23T02:51:53.761Z,12.33
2023-09-23T02:52:53.736Z,12.31
2023-09-23T02:53:53.696Z,12.30
2023-09-23T02:54:53.688Z,12.29
2023-09-23T02:55:53.699Z,12.26
2023-09-23T02:56:53.671Z,12.25
2023-09-23T02:57:53.679Z,12.25
2023-09-23T02:58:53.660Z,12.23
2023-09-23T02:59:53.614Z,12.22
2023-09-23T03:00:53.639Z,12.21
2023-09-23T03:01:53.716Z,12.19
2023-09-23T03:02:53.714Z,12.22
2023-09-23T03:03:53.642Z,12.23
2023-09-23T03:04:53.652Z,12.21
2023-09-23T03:05:53.645Z,12.19
2023-09-23T03:06:53.560Z,12.21
2023-09-23T03:07:53.867Z,12.22
2023-09-23T03:08:53.516Z,12.21
2023-09-23T03:09:53.504Z,12.21
2023-09-23T03:10:53.552Z,12.19
2023-09-23T03:11:53.463Z,12.18
2023-09-23T03:12:53.492Z,12.18
2023-09-23T03:13:53.472Z,12.16
2023-09-23T03:14:53.454Z,12.15
2023-09-23T03:15:53.450Z,12.15
2023-09-23T03:16:53.515Z,12.18
2023-09-23T03:17:53.427Z,12.16
2023-09-23T03:18:53.412Z,12.16
2023-09-23T03:19:53.364Z,12.15
2023-09-23T03:20:53.368Z,12.16
2023-09-23T03:21:53.334Z,12.15
2023-09-23T03:22:53.364Z,12.16
2023-09-23T03:23:53.310Z,12.16
2023-09-23T03:24:53.289Z,12.16
2023-09-23T03:25:53.391Z,12.16
2023-09-23T03:26:53.258Z,12.18
2023-09-23T03:27:53.244Z,12.16
2023-09-23T03:28:53.267Z,12.16
2023-09-23T03:29:53.241Z,12.16
2023-09-23T03:30:53.254Z,12.18
2023-09-23T03:31:53.244Z,12.16
2023-09-23T03:32:53.269Z,12.15
2023-09-23T03:33:53.203Z,12.15
2023-09-23T03:34:53.173Z,12.16
2023-09-23T03:35:53.154Z,12.15
2023-09-23T03:36:53.140Z,12.13
2023-09-23T03:37:53.157Z,12.13
2023-09-23T03:38:53.106Z,12.12
2023-09-23T03:39:53.108Z,12.15
2023-09-23T03:40:53.180Z,12.12
2023-09-23T03:41:53.078Z,12.13
2023-09-23T03:42:53.061Z,12.12
2023-09-23T03:43:53.072Z,12.11
2023-09-23T03:44:53.028Z,12.12
2023-09-23T03:45:53.084Z,12.13
2023-09-23T03:46:53.124Z,12.12
2023-09-23T03:47:53.004Z,12.11
2023-09-23T03:48:52.999Z,12.11
2023-09-23T03:49:52.988Z,12.08
2023-09-23T03:50:52.965Z,12.11
2023-09-23T03:51:52.950Z,12.11
2023-09-23T03:52:52.969Z,12.07
2023-09-23T03:53:52.909Z,12.08
2023-09-23T03:54:52.914Z,12.05
2023-09-23T03:55:52.978Z,12.04
2023-09-23T03:56:52.882Z,12.04
2023-09-23T03:57:52.858Z,12.05
2023-09-23T03:58:52.877Z,12.07
2023-09-23T03:59:52.833Z,12.07
2023-09-23T04:00:52.856Z,12.08
2023-09-23T04:01:52.956Z,12.07
2023-09-23T04:02:52.801Z,12.05
2023-09-23T04:03:52.812Z,12.11
2023-09-23T04:04:52.775Z,12.07
2023-09-23T04:05:52.745Z,12.05
2023-09-23T04:06:52.791Z,12.04
2023-09-23T04:07:52.782Z,12.05
2023-09-23T04:08:52.720Z,12.05
2023-09-23T04:09:52.722Z,12.04
2023-09-23T04:10:52.730Z,12.01
2023-09-23T04:11:53.736Z,12.01
2023-09-23T04:12:52.749Z,12.00
2023-09-23T04:13:52.682Z,12.01
2023-09-23T04:14:52.648Z,12.01
2023-09-23T04:15:52.651Z,12.03
2023-09-23T04:16:52.660Z,12.01
2023-09-23T04:17:52.644Z,12.03
2023-09-23T04:18:52.597Z,12.03
2023-09-23T04:19:52.632Z,12.03
2023-09-23T04:20:52.600Z,12.04
2023-09-23T04:21:52.591Z,12.03
2023-09-23T04:22:52.609Z,12.03
2023-09-23T04:23:52.540Z,12.01
2023-09-23T04:24:52.540Z,12.01
2023-09-23T04:25:52.526Z,12.01
2023-09-23T04:26:52.510Z,12.00
2023-09-23T04:27:52.488Z,12.00
2023-09-23T04:28:52.491Z,11.98
2023-09-23T04:29:52.470Z,12.00
2023-09-23T04:30:52.431Z,11.98
2023-09-23T04:31:52.472Z,12.00
2023-09-23T04:32:52.492Z,12.03
2023-09-23T04:33:52.494Z,12.05
2023-09-23T04:34:52.436Z,12.05
2023-09-23T04:35:52.362Z,12.07
2023-09-23T04:36:52.365Z,12.11
2023-09-23T04:37:52.344Z,12.12
2023-09-23T04:38:52.340Z,12.12
2023-09-23T04:39:52.366Z,12.13
2023-09-23T04:40:52.325Z,12.16
2023-09-23T04:41:52.311Z,12.16
2023-09-23T04:42:52.299Z,12.18
2023-09-23T04:43:52.314Z,12.19
2023-09-23T04:44:52.249Z,12.19
2023-09-23T04:45:52.254Z,12.19
2023-09-23T04:46:52.424Z,12.19
2023-09-23T04:47:52.460Z,12.19
2023-09-23T04:48:52.232Z,12.23
2023-09-23T04:49:52.205Z,12.25
2023-09-23T04:50:52.224Z,12.25
2023-09-23T04:51:52.277Z,12.25
2023-09-23T04:52:52.382Z,12.26
2023-09-23T04:53:52.164Z,12.25
2023-09-23T04:54:52.205Z,12.23
2023-09-23T04:55:52.137Z,12.23
2023-09-23T04:56:52.126Z,12.22
2023-09-23T04:57:52.091Z,12.21
2023-09-23T04:58:52.228Z,12.21
2023-09-23T04:59:52.050Z,12.21
2023-09-23T05:00:52.087Z,12.21
2023-09-23T05:01:52.062Z,12.18
2023-09-23T05:02:52.118Z,12.16
2023-09-23T05:03:52.082Z,12.13
2023-09-23T05:04:52.072Z,12.12
2023-09-23T05:05:52.044Z,12.11
2023-09-23T05:06:51.985Z,12.12
2023-09-23T05:07:51.995Z,12.12
2023-09-23T05:08:51.940Z,12.11
2023-09-23T05:09:51.917Z,12.08
2023-09-23T05:10:51.937Z,12.11
2023-09-23T05:11:51.921Z,12.12
2023-09-23T05:12:51.909Z,12.08
2023-09-23T05:13:51.901Z,12.11
2023-09-23T05:14:53.105Z,12.11
2023-09-23T05:15:51.932Z,12.11
2023-09-23T05:16:51.918Z,12.08
2023-09-23T05:17:51.899Z,12.07
2023-09-23T05:18:51.865Z,12.07
2023-09-23T05:19:51.835Z,12.04
2023-09-23T05:20:51.780Z,12.04
2023-09-23T05:21:51.797Z,12.05
2023-09-23T05:22:51.784Z,12.05
2023-09-23T05:23:51.739Z,12.05
2023-09-23T05:24:51.755Z,12.05
2023-09-23T05:25:51.813Z,12.05
2023-09-23T05:26:51.713Z,12.05
2023-09-23T05:27:51.729Z,12.07
2023-09-23T05:28:51.732Z,12.05
2023-09-23T05:29:51.760Z,12.05
2023-09-23T05:30:51.741Z,12.07
2023-09-23T05:31:51.655Z,12.07
2023-09-23T05:32:51.651Z,12.07
2023-09-23T05:33:51.629Z,12.08
2023-09-23T05:34:51.631Z,12.11
2023-09-23T05:35:51.613Z,12.08
2023-09-23T05:36:51.594Z,12.08
2023-09-23T05:37:51.753Z,12.07
2023-09-23T05:38:51.571Z,12.04
2023-09-23T05:39:51.532Z,12.05
2023-09-23T05:40:51.585Z,12.07
2023-09-23T05:41:51.539Z,12.07
2023-09-23T05:42:51.528Z,12.07
2023-09-23T05:43:51.519Z,12.07
2023-09-23T05:44:51.476Z,12.07
2023-09-23T05:45:51.483Z,12.08
2023-09-23T05:46:51.467Z,12.11
2023-09-23T05:47:51.572Z,12.07
2023-09-23T05:48:51.454Z,12.04
2023-09-23T05:49:51.426Z,12.03
2023-09-23T05:50:51.390Z,12.04
2023-09-23T05:51:51.381Z,12.01
2023-09-23T05:52:51.409Z,12.01
2023-09-23T05:53:51.355Z,12.03
2023-09-23T05:54:51.351Z,12.03
2023-09-23T05:55:51.368Z,12.04
2023-09-23T05:56:51.326Z,12.04
2023-09-23T05:57:51.333Z,12.04
2023-09-23T05:58:51.360Z,12.04
2023-09-23T05:59:51.286Z,12.04
2023-09-23T06:00:51.306Z,12.03
2023-09-23T06:01:51.260Z,12.01
2023-09-23T06:02:51.330Z,12.01
2023-09-23T06:03:51.282Z,12.00
2023-09-23T06:04:51.297Z,11.98
2023-09-23T06:05:51.203Z,12.00
2023-09-23T06:06:51.191Z,11.98
2023-09-23T06:07:51.238Z,12.00
2023-09-23T06:08:51.163Z,11.98
2023-09-23T06:09:51.161Z,11.98
2023-09-23T06:10:51.210Z,12.00
2023-09-23T06:11:51.123Z,11.97
2023-09-23T06:12:51.129Z,11.98
2023-09-23T06:13:51.135Z,11.98
2023-09-23T06:14:51.100Z,12.00
2023-09-23T06:15:51.070Z,12.00
2023-09-23T06:16:51.091Z,12.01
2023-09-23T06:17:51.098Z,12.03
2023-09-23T06:18:51.051Z,12.04
2023-09-23T06:19:51.063Z,12.05
2023-09-23T06:20:51.007Z,12.04
2023-09-23T06:21:51.000Z,12.01
2023-09-23T06:22:50.993Z,12.03
2023-09-23T06:23:50.975Z,12.05
2023-09-23T06:24:50.953Z,12.04
2023-09-23T06:25:51.000Z,12.05
2023-09-23T06:26:50.930Z,12.07
2023-09-23T06:27:50.978Z,12.07
2023-09-23T06:28:51.011Z,12.07
2023-09-23T06:29:50.901Z,12.07
2023-09-23T06:30:50.890Z,12.07
2023-09-23T06:31:50.895Z,12.08
2023-09-23T06:32:50.954Z,12.08
2023-09-23T06:33:50.852Z,12.08
2023-09-23T06:34:50.951Z,12.08
2023-09-23T06:35:50.818Z,12.11
2023-09-23T06:36:50.798Z,12.08
2023-09-23T06:37:50.814Z,12.11
2023-09-23T06:38:50.775Z,12.12
2023-09-23T06:39:50.764Z,12.11
2023-09-23T06:40:50.798Z,12.12
2023-09-23T06:41:50.729Z,12.15
2023-09-23T06:42:50.741Z,12.16
2023-09-23T06:43:50.720Z,12.19
2023-09-23T06:44:50.709Z,12.21
2023-09-23T06:45:50.677Z,12.23
2023-09-23T06:46:50.808Z,12.25
2023-09-23T06:47:50.740Z,12.29
2023-09-23T06:48:50.668Z,12.29
2023-09-23T06:49:50.687Z,12.29
2023-09-23T06:50:51.600Z,12.31
2023-09-23T06:51:50.615Z,12.33
2023-09-23T06:52:50.665Z,12.36
2023-09-23T06:53:50.921Z,12.38
2023-09-23T06:54:50.640Z,12.40
2023-09-23T06:55:50.580Z,12.41
2023-09-23T06:56:50.568Z,12.43
2023-09-23T06:57:50.554Z,12.44
2023-09-23T06:58:50.549Z,12.48
2023-09-23T06:59:50.526Z,12.51
2023-09-23T07:00:50.524Z,12.55
2023-09-23T07:01:50.555Z,12.55
2023-09-23T07:02:50.601Z,12.59
2023-09-23T07:03:50.899Z,12.62
2023-09-23T07:04:50.497Z,12.66
2023-09-23T07:05:52.060Z,12.70
2023-09-23T07:06:50.412Z,12.71
2023-09-23T07:07:50.442Z,12.73
2023-09-23T07:08:50.401Z,12.77
2023-09-23T07:09:50.370Z,12.79
2023-09-23T07:10:50.376Z,12.80
2023-09-23T07:11:50.355Z,12.81
2023-09-23T07:12:50.342Z,12.87
2023-09-23T07:13:50.389Z,12.91
2023-09-23T07:14:50.363Z,12.94
2023-09-23T07:15:50.302Z,12.98
2023-09-23T07:16:50.347Z,12.99
2023-09-23T07:17:50.306Z,13.01
2023-09-23T07:18:50.249Z,13.03
2023-09-23T07:19:50.293Z,13.03
2023-09-23T07:20:50.253Z,13.04
2023-09-23T07:21:50.234Z,13.04
2023-09-23T07:22:50.234Z,13.06
2023-09-23T07:23:50.194Z,13.07
2023-09-23T07:24:50.187Z,13.10
2023-09-23T07:25:50.225Z,13.13
2023-09-23T07:26:50.172Z,13.16
2023-09-23T07:27:50.143Z,13.16
2023-09-23T07:28:50.133Z,13.19
2023-09-23T07:29:50.135Z,13.19
2023-09-23T07:30:50.158Z,13.21
2023-09-23T07:31:50.141Z,13.24
2023-09-23T07:32:50.107Z,13.25
2023-09-23T07:33:50.442Z,13.28
2023-09-23T07:34:50.118Z,13.28
2023-09-23T07:35:50.058Z,13.29
2023-09-23T07:36:50.034Z,13.31
2023-09-23T07:37:50.078Z,13.31
2023-09-23T07:38:50.038Z,13.36
2023-09-23T07:39:49.995Z,13.39
2023-09-23T07:40:50.057Z,13.38
2023-09-23T07:41:49.988Z,13.35
2023-09-23T07:42:49.951Z,13.38
2023-09-23T07:43:50.053Z,13.36
2023-09-23T07:44:49.937Z,13.41
2023-09-23T07:45:49.944Z,13.46
2023-09-23T07:46:49.955Z,13.46
2023-09-23T07:47:49.905Z,13.46
2023-09-23T07:48:49.908Z,13.46
2023-09-23T07:49:49.886Z,13.51
2023-09-23T07:50:49.863Z,13.55
2023-09-23T07:51:49.862Z,13.61
2023-09-23T07:52:49.866Z,13.66
2023-09-23T07:53:49.832Z,13.69
2023-09-23T07:54:49.812Z,13.75
2023-09-23T07:55:49.817Z,13.76
2023-09-23T07:56:49.768Z,13.80
2023-09-23T07:57:49.783Z,13.80
2023-09-23T07:58:49.765Z,13.79
2023-09-23T07:59:49.722Z,13.73
2023-09-23T08:00:49.728Z,13.76
2023-09-23T08:01:49.751Z,13.80
2023-09-23T08:02:49.780Z,13.84
2023-09-23T08:03:49.716Z,13.88
2023-09-23T08:04:49.731Z,13.88
2023-09-23T08:05:49.670Z,13.84
2023-09-23T08:06:49.660Z,13.87
2023-09-23T08:07:49.648Z,13.88
2023-09-23T08:08:49.641Z,13.88
2023-09-23T08:09:49.612Z,13.88
2023-09-23T08:10:49.637Z,13.91
2023-09-23T08:11:49.572Z,13.98
2023-09-23T08:12:49.604Z,14.05
2023-09-23T08:13:49.611Z,14.08
2023-09-23T08:14:49.560Z,14.11
2023-09-23T08:15:49.545Z,14.13
2023-09-23T08:16:49.526Z,14.16
2023-09-23T08:17:49.554Z,14.16
2023-09-23T08:18:49.505Z,14.16
2023-09-23T08:19:49.534Z,14.19
2023-09-23T08:20:49.451Z,14.26
2023-09-23T08:21:49.480Z,14.30
2023-09-23T08:22:49.556Z,14.36
2023-09-23T08:23:49.429Z,14.42
2023-09-23T08:24:49.409Z,14.45
2023-09-23T08:25:49.473Z,14.52
2023-09-23T08:26:49.403Z,14.53
2023-09-23T08:27:49.438Z,14.59
2023-09-23T08:28:49.500Z,14.56
2023-09-23T08:29:49.346Z,14.63
2023-09-23T08:30:49.327Z,14.66
2023-09-23T08:31:49.413Z,14.67
2023-09-23T08:32:49.408Z,14.75
2023-09-23T08:33:49.541Z,14.80
2023-09-23T08:34:49.433Z,14.80
2023-09-23T08:35:49.352Z,14.82
2023-09-23T08:36:49.244Z,14.83
2023-09-23T08:37:49.256Z,14.90
2023-09-23T08:38:49.253Z,14.91
2023-09-23T08:39:49.267Z,14.87
2023-09-23T08:40:49.209Z,14.87
2023-09-23T08:41:49.452Z,14.87
2023-09-23T08:42:49.181Z,14.90
2023-09-23T08:43:49.188Z,14.90
2023-09-23T08:44:49.154Z,14.94
2023-09-23T08:45:49.143Z,15.00
2023-09-23T08:46:49.121Z,15.04
2023-09-23T08:47:49.162Z,15.03
2023-09-23T08:48:49.416Z,15.12
2023-09-23T08:49:49.089Z,15.19
2023-09-23T08:50:49.097Z,15.22
2023-09-23T08:51:49.089Z,15.30
2023-09-23T08:52:49.040Z,15.40
2023-09-23T08:53:49.041Z,15.46
2023-09-23T08:54:49.022Z,15.55
2023-09-23T08:55:49.018Z,15.55
2023-09-23T08:56:49.007Z,15.48
2023-09-23T08:57:48.981Z,15.46
2023-09-23T08:58:48.972Z,15.48
2023-09-23T08:59:48.969Z,15.48
2023-09-23T09:00:48.991Z,15.41
2023-09-23T09:01:48.921Z,15.37
2023-09-23T09:02:48.990Z,15.27
2023-09-23T09:03:49.620Z,15.20
2023-09-23T09:04:48.931Z,15.18
2023-09-23T09:05:48.999Z,15.20
2023-09-23T09:06:48.893Z,15.20
2023-09-23T09:07:48.857Z,15.20
2023-09-23T09:08:49.135Z,15.22
2023-09-23T09:09:48.882Z,15.28
2023-09-23T09:10:48.917Z,15.28
2023-09-23T09:11:48.834Z,15.35
2023-09-23T09:12:48.809Z,15.33
2023-09-23T09:13:48.775Z,15.34
2023-09-23T09:14:48.786Z,15.33
2023-09-23T09:15:48.818Z,15.30
2023-09-23T09:16:48.752Z,15.34
2023-09-23T09:17:48.738Z,15.33
2023-09-23T09:18:48.737Z,15.35
2023-09-23T09:19:50.804Z,15.41
2023-09-23T09:20:48.690Z,15.48
2023-09-23T09:21:48.703Z,15.55
2023-09-23T09:22:48.693Z,15.56
2023-09-23T09:23:48.667Z,15.52
2023-09-23T09:24:48.635Z,15.52
2023-09-23T09:25:48.650Z,15.51
2023-09-23T09:26:48.599Z,15.49
2023-09-23T09:27:48.628Z,15.44
2023-09-23T09:28:48.961Z,15.41
2023-09-23T09:29:50.326Z,15.43
2023-09-23T09:30:49.543Z,15.44
2023-09-23T09:31:48.617Z,15.48
2023-09-23T09:32:48.730Z,15.49
2023-09-23T09:33:48.586Z,15.41
2023-09-23T09:34:48.664Z,15.40
2023-09-23T09:35:48.492Z,15.35
2023-09-23T09:36:48.501Z,15.33
2023-09-23T09:37:50.200Z,15.30
2023-09-23T09:38:48.642Z,15.35
2023-09-23T09:39:48.440Z,15.37
2023-09-23T09:40:48.491Z,15.46
2023-09-23T09:41:48.439Z,15.49
2023-09-23T09:42:49.509Z,15.56
2023-09-23T09:43:48.403Z,15.67
2023-09-23T09:44:48.405Z,15.77
2023-09-23T09:45:48.382Z,15.80
2023-09-23T09:46:48.392Z,15.85
2023-09-23T09:47:48.460Z,15.93
2023-09-23T09:48:48.456Z,15.95
2023-09-23T09:49:48.319Z,15.95
2023-09-23T09:50:48.288Z,15.91
2023-09-23T09:51:48.287Z,15.92
2023-09-23T09:52:48.263Z,15.92
2023-09-23T09:53:48.258Z,15.99
2023-09-23T09:54:48.271Z,16.07
2023-09-23T09:55:48.222Z,16.13
2023-09-23T09:56:48.224Z,16.22
2023-09-23T09:57:48.221Z,16.26
2023-09-23T09:58:48.258Z,16.29
2023-09-23T09:59:48.213Z,16.32
2023-09-23T10:00:48.210Z,16.36
2023-09-23T10:01:48.160Z,16.40
2023-09-23T10:02:48.198Z,16.42
2023-09-23T10:03:48.214Z,16.45
2023-09-23T10:04:48.148Z,16.45
2023-09-23T10:05:48.406Z,16.50
2023-09-23T10:06:48.086Z,16.48
2023-09-23T10:07:48.088Z,16.51
2023-09-23T10:08:48.285Z,16.51
2023-09-23T10:09:48.074Z,16.50
2023-09-23T10:10:48.053Z,16.50
2023-09-23T10:11:48.043Z,16.44
2023-09-23T10:12:48.035Z,16.40
2023-09-23T10:13:48.018Z,16.40
2023-09-23T10:14:48.030Z,16.37
2023-09-23T10:15:47.993Z,16.42
2023-09-23T10:16:47.976Z,16.44
2023-09-23T10:17:48.017Z,16.40
2023-09-23T10:18:48.178Z,16.41
2023-09-23T10:19:47.932Z,16.36
2023-09-23T10:20:47.901Z,16.40
2023-09-23T10:21:47.896Z,16.40
2023-09-23T10:22:47.876Z,16.40
2023-09-23T10:23:47.896Z,16.37
2023-09-23T10:24:48.148Z,16.33
2023-09-23T10:25:47.901Z,16.27
2023-09-23T10:26:48.828Z,16.27
2023-09-23T10:27:47.874Z,16.23
2023-09-23T10:28:47.983Z,16.18
2023-09-23T10:29:47.789Z,16.06
2023-09-23T10:30:47.808Z,16.03
2023-09-23T10:31:47.768Z,15.95
2023-09-23T10:32:47.839Z,15.99
2023-09-23T10:33:47.737Z,16.01
2023-09-23T10:34:47.727Z,16.07
2023-09-23T10:35:47.775Z,16.11
2023-09-23T10:36:47.693Z,16.17
2023-09-23T10:37:47.680Z,16.18
2023-09-23T10:38:48.027Z,16.26
2023-09-23T10:39:47.662Z,16.30
2023-09-23T10:40:47.659Z,16.30
2023-09-23T10:41:47.688Z,16.33
2023-09-23T10:42:47.635Z,16.41
2023-09-23T10:43:47.604Z,16.45
2023-09-23T10:44:47.605Z,16.47
2023-09-23T10:45:47.614Z,16.55
2023-09-23T10:46:47.563Z,16.63
2023-09-23T10:47:47.650Z,16.66
2023-09-23T10:48:47.784Z,16.73
2023-09-23T10:49:47.653Z,16.69
2023-09-23T10:50:47.536Z,16.66
2023-09-23T10:51:47.504Z,16.67
2023-09-23T10:52:58.540Z,16.57
2023-09-23T10:53:47.499Z,16.50
2023-09-23T10:54:47.472Z,16.44
2023-09-23T10:55:47.493Z,16.37
2023-09-23T10:56:47.469Z,16.29
2023-09-23T10:57:47.490Z,16.25
2023-09-23T10:58:47.682Z,16.22
2023-09-23T10:59:47.456Z,16.14
2023-09-23T11:00:47.430Z,16.13
2023-09-23T11:01:47.452Z,16.10
2023-09-23T11:02:47.499Z,16.08
2023-09-23T11:03:47.635Z,16.08
2023-09-23T11:04:47.342Z,16.10
2023-09-23T11:05:47.377Z,16.13
2023-09-23T11:06:47.363Z,16.13
2023-09-23T11:07:47.358Z,16.14
2023-09-23T11:08:47.518Z,16.16
2023-09-23T11:09:47.298Z,16.07
2023-09-23T11:10:47.275Z,16.03
2023-09-23T11:11:47.292Z,15.95
2023-09-23T11:12:47.294Z,15.85
2023-09-23T11:13:47.270Z,15.84
2023-09-23T11:14:47.280Z,15.80
2023-09-23T11:15:47.212Z,15.70
2023-09-23T11:16:47.287Z,15.66
2023-09-23T11:17:47.291Z,15.64
2023-09-23T11:18:47.435Z,15.67
2023-09-23T11:19:48.065Z,15.66
2023-09-23T11:20:47.886Z,15.66
2023-09-23T11:21:47.388Z,15.70
2023-09-23T11:22:47.118Z,15.73
2023-09-23T11:23:47.114Z,15.77
2023-09-23T11:24:47.104Z,15.81
2023-09-23T11:25:47.088Z,15.88
2023-09-23T11:26:47.077Z,16.01
2023-09-23T11:27:47.105Z,16.04
2023-09-23T11:28:47.229Z,16.10
2023-09-23T11:29:47.030Z,16.07
2023-09-23T11:30:47.044Z,16.04
2023-09-23T11:31:47.142Z,16.06
2023-09-23T11:32:47.107Z,16.07
2023-09-23T11:33:46.989Z,16.07
2023-09-23T11:34:47.024Z,16.11
2023-09-23T11:35:46.963Z,16.13
2023-09-23T11:36:46.973Z,16.13
2023-09-23T11:37:46.911Z,16.14
2023-09-23T11:38:47.148Z,16.22
2023-09-23T11:39:46.890Z,16.22
2023-09-23T11:40:46.914Z,16.23
2023-09-23T11:41:46.853Z,16.27
2023-09-23T11:42:46.869Z,16.36
2023-09-23T11:43:46.870Z,16.40
2023-09-23T11:44:47.751Z,16.41
2023-09-23T11:45:46.863Z,16.45
2023-09-23T11:46:46.823Z,16.51
2023-09-23T11:47:46.858Z,16.54
2023-09-23T11:48:47.324Z,16.60
2023-09-23T11:49:46.770Z,16.65
2023-09-23T11:50:46.821Z,16.66
2023-09-23T11:51:46.737Z,16.62
2023-09-23T11:52:46.729Z,16.60
2023-09-23T11:53:46.718Z,16.60
2023-09-23T11:54:46.764Z,16.60
2023-09-23T11:55:46.723Z,16.54
2023-09-23T11:56:46.678Z,16.50
2023-09-23T11:57:46.698Z,16.45
2023-09-23T11:59:01.979Z,16.42
2023-09-23T11:59:47.671Z,16.42
2023-09-23T12:00:46.607Z,16.37
2023-09-23T12:01:46.594Z,16.37
2023-09-23T12:02:46.659Z,16.37
2023-09-23T12:03:46.770Z,16.34
2023-09-23T12:04:46.851Z,16.36
2023-09-23T12:05:46.579Z,16.40
2023-09-23T12:06:46.541Z,16.41
2023-09-23T12:07:46.544Z,16.44
2023-09-23T12:08:46.673Z,16.48
2023-09-23T12:09:46.495Z,16.52
2023-09-23T12:10:46.522Z,16.57
2023-09-23T12:11:46.499Z,16.65
2023-09-23T12:12:46.481Z,16.72
2023-09-23T12:13:46.457Z,16.78
2023-09-23T12:14:46.475Z,16.82
2023-09-23T12:15:46.456Z,16.87
2023-09-23T12:16:46.433Z,16.90
2023-09-23T12:17:46.471Z,16.92
2023-09-23T12:18:46.595Z,16.96
2023-09-23T12:19:46.402Z,16.95
2023-09-23T12:20:46.386Z,16.96
2023-09-23T12:21:46.345Z,16.92
2023-09-23T12:22:46.369Z,16.90
2023-09-23T12:23:46.335Z,16.87
2023-09-23T12:24:46.371Z,16.81
2023-09-23T12:25:46.347Z,16.80
2023-09-23T12:26:46.289Z,16.72
2023-09-23T12:27:46.279Z,16.72
2023-09-23T12:28:46.641Z,16.67
2023-09-23T12:29:46.265Z,16.63
2023-09-23T12:30:46.261Z,16.59
2023-09-23T12:31:46.247Z,16.55
2023-09-23T12:32:46.303Z,16.55
2023-09-23T12:33:46.215Z,16.52
2023-09-23T12:34:46.220Z,16.50
2023-09-23T12:35:46.225Z,16.44
2023-09-23T12:36:46.129Z,16.42
2023-09-23T12:37:46.111Z,16.44
2023-09-23T12:38:46.389Z,16.48
2023-09-23T12:39:46.107Z,16.55
2023-09-23T12:40:46.102Z,16.65
2023-09-23T12:41:46.073Z,16.73
2023-09-23T12:42:46.067Z,16.73
2023-09-23T12:43:46.104Z,16.73
2023-09-23T12:44:46.067Z,16.81
2023-09-23T12:45:46.071Z,16.81
2023-09-23T12:46:46.437Z,16.88
2023-09-23T12:47:56.701Z,16.92
2023-09-23T12:48:47.265Z,16.96
2023-09-23T12:49:45.992Z,16.99
2023-09-23T12:50:46.032Z,17.02
2023-09-23T12:51:46.074Z,17.10
2023-09-23T12:52:45.977Z,17.14